Time;durP1;ratioP1;P1;durP2;ratioP2;P2;SDS_P1;SDS_P2;PMS_P1;PMS_P2;Temp;Humidity;BMP_temperature;BMP_pressure;BME280_temperature;BME280_humidity;BME280_pressure;Samples;Min_cycle;Max_cycle;Signal;HPM_P1;HPM_P2
2024/01/12 00:00:24;;;;;;;33.25;19.00;;;0.90;99.90;;;;;;5088187;28;20041;-64
2024/01/12 00:02:50;;;;;;;29.58;16.55;;;1.00;99.90;;;;;;5083896;28;20036;-64
2024/01/12 00:05:15;;;;;;;34.97;16.80;;;1.00;99.90;;;;;;5088587;28;20043;-64
2024/01/12 00:07:41;;;;;;;30.35;16.20;;;1.00;99.90;;;;;;5086123;28;20158;-64
2024/01/12 00:10:10;;;;;;;28.33;15.20;;;1.00;99.90;;;;;;5085224;28;20044;-64
2024/01/12 00:12:36;;;;;;;30.98;15.30;;;1.00;99.90;;;;;;5087861;28;20055;-64
2024/01/12 00:15:03;;;;;;;28.63;13.48;;;1.00;99.90;;;;;;5093532;28;20044;-64
2024/01/12 00:17:28;;;;;;;29.88;14.27;;;1.10;99.90;;;;;;5121423;27;20493;-64
2024/01/12 00:19:54;;;;;;;32.67;11.07;;;1.20;99.90;;;;;;5089861;28;20040;-64
2024/01/12 00:22:20;;;;;;;28.65;10.55;;;1.20;99.90;;;;;;5119002;27;20075;-64
2024/01/12 00:24:45;;;;;;;30.08;11.13;;;1.20;99.90;;;;;;5090355;28;20048;-64
2024/01/12 00:27:11;;;;;;;24.75;9.20;;;1.30;99.90;;;;;;5087055;28;20059;-64
2024/01/12 00:29:36;;;;;;;26.33;10.93;;;1.30;99.90;;;;;;5068115;28;20028;-64
2024/01/12 00:32:05;;;;;;;28.35;11.43;;;1.30;99.90;;;;;;5086659;28;20444;-64
2024/01/12 00:34:30;;;;;;;26.27;11.73;;;1.30;99.90;;;;;;5117254;27;20044;-64
2024/01/12 00:36:56;;;;;;;25.63;10.75;;;1.30;99.90;;;;;;5088037;28;20031;-64
2024/01/12 00:39:21;;;;;;;24.58;9.82;;;1.30;99.90;;;;;;5087627;28;20485;-64
2024/01/12 00:41:50;;;;;;;21.15;9.38;;;1.30;99.90;;;;;;5089356;28;20128;-64
2024/01/12 00:44:18;;;;;;;20.45;9.57;;;1.30;99.90;;;;;;5085096;28;20055;-64
2024/01/12 00:46:44;;;;;;;28.90;10.50;;;1.30;99.90;;;;;;5085173;28;20032;-64
2024/01/12 00:49:10;;;;;;;27.83;11.98;;;1.30;99.90;;;;;;5091197;28;20043;-64
2024/01/12 00:51:36;;;;;;;16.63;9.52;;;1.30;99.90;;;;;;5117041;27;20047;-64
2024/01/12 00:54:02;;;;;;;19.50;10.23;;;1.30;99.90;;;;;;5086582;28;20035;-64
2024/01/12 00:56:28;;;;;;;23.77;9.65;;;1.30;99.90;;;;;;5090415;28;20051;-64
2024/01/12 00:58:53;;;;;;;16.00;8.50;;;1.20;99.90;;;;;;5114042;27;20059;-64
2024/01/12 01:01:19;;;;;;;14.00;7.75;;;1.30;99.90;;;;;;5085922;28;20145;-64
2024/01/12 01:03:45;;;;;;;15.45;6.60;;;1.20;99.90;;;;;;5083561;28;20057;-64
2024/01/12 01:06:10;;;;;;;21.30;8.35;;;1.20;99.90;;;;;;5086200;28;20036;-64
2024/01/12 01:08:36;;;;;;;17.48;7.40;;;1.30;99.90;;;;;;5080742;28;20047;-64
2024/01/12 01:11:02;;;;;;;18.27;7.75;;;1.30;99.90;;;;;;5086873;28;20131;-64
2024/01/12 01:13:28;;;;;;;20.00;6.80;;;1.30;99.90;;;;;;5086440;28;20659;-64
2024/01/12 01:15:53;;;;;;;19.05;6.88;;;1.30;99.90;;;;;;5084683;28;20601;-64
2024/01/12 01:18:19;;;;;;;20.20;5.93;;;1.30;99.90;;;;;;5086159;28;20024;-64
2024/01/12 01:20:45;;;;;;;17.45;6.28;;;1.30;99.90;;;;;;5087550;28;20076;-64
2024/01/12 01:23:10;;;;;;;17.42;6.57;;;1.40;99.90;;;;;;5092401;28;20032;-64
2024/01/12 01:25:36;;;;;;;14.60;5.50;;;1.40;99.90;;;;;;5088389;28;20168;-64
2024/01/12 01:28:02;;;;;;;22.95;7.40;;;1.40;99.90;;;;;;5085615;28;20044;-64
2024/01/12 01:30:28;;;;;;;17.58;5.47;;;1.50;99.90;;;;;;5085169;28;20122;-64
2024/01/12 01:32:53;;;;;;;24.27;7.10;;;1.50;99.90;;;;;;5086937;28;20036;-65
2024/01/12 01:35:19;;;;;;;16.90;5.93;;;1.50;99.90;;;;;;5087080;28;20124;-64
2024/01/12 01:37:45;;;;;;;21.98;6.68;;;1.50;99.90;;;;;;5088581;28;20035;-64
2024/01/12 01:40:11;;;;;;;22.95;6.13;;;1.60;99.90;;;;;;5087887;28;20035;-64
2024/01/12 01:42:36;;;;;;;15.25;5.60;;;1.60;99.90;;;;;;5083469;28;20039;-64
2024/01/12 01:45:02;;;;;;;19.05;5.82;;;1.60;99.90;;;;;;5085251;28;20044;-64
2024/01/12 01:47:28;;;;;;;18.67;6.13;;;1.60;99.90;;;;;;5114441;27;20079;-64
2024/01/12 01:49:55;;;;;;;16.15;5.07;;;1.60;99.90;;;;;;5083975;28;20083;-64
2024/01/12 01:52:23;;;;;;;14.90;4.93;;;1.60;99.90;;;;;;5086537;28;20130;-64
2024/01/12 01:54:49;;;;;;;23.63;5.57;;;1.70;99.90;;;;;;5087776;28;20040;-64
2024/01/12 01:57:15;;;;;;;13.07;4.70;;;1.70;99.90;;;;;;5117296;27;20043;-64
2024/01/12 01:59:41;;;;;;;24.73;6.03;;;1.80;99.90;;;;;;5086894;28;20032;-64
2024/01/12 02:02:08;;;;;;;22.15;5.40;;;1.70;99.90;;;;;;5084585;28;20097;-64
2024/01/12 02:04:34;;;;;;;15.45;5.40;;;1.70;99.90;;;;;;5114984;27;20043;-64
2024/01/12 02:07:01;;;;;;;15.00;4.30;;;1.70;99.90;;;;;;5085893;28;20140;-64
2024/01/12 02:09:28;;;;;;;10.57;4.82;;;1.80;99.90;;;;;;5081978;28;20044;-64
2024/01/12 02:11:54;;;;;;;17.80;4.82;;;1.90;99.90;;;;;;5089847;28;20090;-64
2024/01/12 02:14:20;;;;;;;16.77;6.25;;;1.90;99.90;;;;;;5086761;28;20159;-64
2024/01/12 02:16:46;;;;;;;15.13;4.22;;;1.80;99.90;;;;;;5070243;28;20549;-64
2024/01/12 02:19:12;;;;;;;12.18;4.35;;;1.90;99.90;;;;;;5083045;28;20046;-64
2024/01/12 02:21:37;;;;;;;12.52;4.53;;;1.90;99.90;;;;;;5096958;27;20047;-64
2024/01/12 02:24:03;;;;;;;13.27;4.28;;;1.90;99.90;;;;;;5085338;28;20075;-64
2024/01/12 02:26:29;;;;;;;21.73;5.00;;;1.90;99.90;;;;;;5119517;27;20051;-64
2024/01/12 02:28:55;;;;;;;14.63;4.22;;;1.90;99.90;;;;;;5086654;28;20677;-64
2024/01/12 02:31:20;;;;;;;11.63;4.10;;;1.90;99.90;;;;;;5089137;28;20045;-64
2024/01/12 02:33:49;;;;;;;10.02;4.03;;;1.90;99.90;;;;;;5089543;28;20035;-64
2024/01/12 02:36:15;;;;;;;14.85;4.60;;;1.90;99.90;;;;;;5084624;28;20039;-64
2024/01/12 02:38:41;;;;;;;9.77;4.22;;;1.90;99.90;;;;;;5081611;28;20036;-64
2024/01/12 02:41:07;;;;;;;11.00;3.45;;;1.90;99.90;;;;;;5082835;28;20035;-64
2024/01/12 02:43:32;;;;;;;14.98;4.85;;;1.90;99.90;;;;;;5085985;28;20086;-64
2024/01/12 02:45:58;;;;;;;14.88;4.53;;;1.90;99.90;;;;;;5115876;27;20048;-64
2024/01/12 02:48:24;;;;;;;19.52;4.68;;;1.90;99.90;;;;;;5091128;28;20455;-64
2024/01/12 02:50:49;;;;;;;11.98;4.90;;;1.90;99.90;;;;;;5084028;28;20398;-64
2024/01/12 02:53:16;;;;;;;12.23;4.03;;;1.90;99.90;;;;;;5084096;28;20032;-64
2024/01/12 02:55:42;;;;;;;14.35;3.70;;;1.90;99.90;;;;;;5081513;28;20040;-64
2024/01/12 02:58:07;;;;;;;15.07;4.53;;;1.90;99.90;;;;;;5067430;28;20039;-64
2024/01/12 03:00:33;;;;;;;10.45;4.50;;;1.90;99.90;;;;;;5086621;28;20072;-64
2024/01/12 03:02:59;;;;;;;18.48;8.30;;;1.90;99.90;;;;;;5086719;28;20044;-64
2024/01/12 03:05:24;;;;;;;13.77;4.95;;;1.80;99.90;;;;;;5084025;28;20036;-64
2024/01/12 03:07:50;;;;;;;15.68;6.45;;;1.90;99.90;;;;;;5065533;28;20077;-64
2024/01/12 03:10:17;;;;;;;15.68;5.72;;;1.80;99.90;;;;;;5086202;28;20040;-64
2024/01/12 03:12:43;;;;;;;13.38;4.57;;;1.80;99.90;;;;;;5085224;28;20054;-64
2024/01/12 03:15:08;;;;;;;13.57;5.32;;;1.80;99.90;;;;;;5085826;28;20482;-64
2024/01/12 03:17:34;;;;;;;12.40;4.15;;;1.80;99.90;;;;;;5081299;28;20044;-64
2024/01/12 03:19:59;;;;;;;19.05;4.40;;;1.80;99.90;;;;;;5099620;28;20101;-64
2024/01/12 03:22:25;;;;;;;14.60;4.60;;;1.80;99.90;;;;;;5119198;27;20369;-64
2024/01/12 03:24:51;;;;;;;17.65;4.35;;;1.80;99.90;;;;;;5084866;28;20036;-64
2024/01/12 03:27:16;;;;;;;10.27;3.45;;;1.70;99.90;;;;;;5086608;28;20615;-64
2024/01/12 03:29:42;;;;;;;12.48;4.88;;;1.80;99.90;;;;;;5082751;28;20020;-64
2024/01/12 03:32:07;;;;;;;16.10;4.93;;;1.70;99.90;;;;;;5084879;28;20040;-64
2024/01/12 03:34:33;;;;;;;13.45;4.20;;;1.70;99.90;;;;;;5081501;28;20044;-64
2024/01/12 03:36:59;;;;;;;14.57;4.28;;;1.70;99.90;;;;;;5082680;28;20036;-64
2024/01/12 03:39:24;;;;;;;13.18;4.60;;;1.70;99.90;;;;;;5084656;28;20093;-64
2024/01/12 03:41:50;;;;;;;10.77;4.35;;;1.70;99.90;;;;;;5085686;28;20040;-64
2024/01/12 03:44:16;;;;;;;13.52;4.53;;;1.70;99.90;;;;;;5085295;28;20055;-64
2024/01/12 03:46:41;;;;;;;13.45;4.32;;;1.70;99.90;;;;;;5111842;27;20084;-64
2024/01/12 03:49:07;;;;;;;15.73;4.93;;;1.70;99.90;;;;;;5085204;28;20067;-64
2024/01/12 03:51:32;;;;;;;12.45;4.38;;;1.70;99.90;;;;;;5085404;28;20355;-64
2024/01/12 03:53:58;;;;;;;13.63;3.63;;;1.70;99.90;;;;;;5083529;28;20035;-64
2024/01/12 03:56:23;;;;;;;20.08;5.50;;;1.70;99.90;;;;;;5087734;28;20813;-64
2024/01/12 03:58:49;;;;;;;18.63;4.43;;;1.60;99.90;;;;;;5080400;28;20037;-64
2024/01/12 04:01:15;;;;;;;16.45;4.85;;;1.60;99.90;;;;;;5085792;28;20612;-64
2024/01/12 04:03:41;;;;;;;11.15;4.30;;;1.60;99.90;;;;;;5086591;28;20126;-64
2024/01/12 04:06:08;;;;;;;16.00;5.05;;;1.60;99.90;;;;;;5086699;28;20067;-64
2024/01/12 04:08:33;;;;;;;15.07;4.05;;;1.50;99.90;;;;;;5115264;27;20034;-64
2024/01/12 04:10:59;;;;;;;10.95;3.83;;;1.40;99.90;;;;;;5085984;28;20094;-64
2024/01/12 04:13:25;;;;;;;12.75;3.90;;;1.40;99.90;;;;;;5084420;28;20402;-64
2024/01/12 04:15:51;;;;;;;15.25;4.05;;;1.30;99.90;;;;;;5083846;28;20048;-64
2024/01/12 04:18:16;;;;;;;11.93;3.35;;;1.30;99.90;;;;;;5084459;28;20039;-64
2024/01/12 04:20:42;;;;;;;9.18;3.30;;;1.20;99.90;;;;;;5115952;27;20168;-64
2024/01/12 04:23:08;;;;;;;10.73;3.22;;;1.10;99.90;;;;;;5086994;28;21430;-64
2024/01/12 04:25:33;;;;;;;7.32;2.95;;;1.10;99.90;;;;;;5084574;28;20697;-64
2024/01/12 04:27:59;;;;;;;9.18;3.63;;;1.00;99.90;;;;;;5083906;28;20040;-64
2024/01/12 04:30:24;;;;;;;9.63;3.30;;;1.00;99.90;;;;;;5086653;28;20470;-64
2024/01/12 04:32:50;;;;;;;14.88;3.88;;;1.00;99.90;;;;;;5114404;27;20041;-64
2024/01/12 04:35:16;;;;;;;11.30;3.50;;;1.00;99.90;;;;;;5080956;28;20418;-64
2024/01/12 04:37:42;;;;;;;12.93;3.78;;;1.00;99.90;;;;;;5071781;28;20036;-64
2024/01/12 04:40:07;;;;;;;13.23;4.72;;;1.00;99.90;;;;;;5085526;28;20135;-64
2024/01/12 04:42:33;;;;;;;10.88;3.67;;;1.10;99.90;;;;;;5084641;28;20040;-64
2024/01/12 04:44:59;;;;;;;12.98;5.03;;;1.20;99.90;;;;;;5093216;28;20051;-64
2024/01/12 04:47:24;;;;;;;16.33;5.38;;;1.40;99.90;;;;;;5090766;28;20036;-64
2024/01/12 04:49:50;;;;;;;15.55;5.10;;;1.40;99.90;;;;;;5085236;28;20036;-64
2024/01/12 04:52:15;;;;;;;9.05;4.35;;;1.60;99.90;;;;;;5087694;28;20398;-64
2024/01/12 04:54:41;;;;;;;22.52;5.68;;;1.60;99.90;;;;;;5085147;28;20181;-64
2024/01/12 04:57:07;;;;;;;12.02;4.18;;;1.70;99.90;;;;;;5086326;28;20040;-64
2024/01/12 04:59:32;;;;;;;12.45;4.35;;;1.70;99.90;;;;;;5084755;28;20036;-64
2024/01/12 05:01:58;;;;;;;19.80;5.35;;;1.80;99.90;;;;;;5086635;28;20040;-64
2024/01/12 05:04:24;;;;;;;13.70;4.57;;;1.80;99.90;;;;;;5083598;28;20038;-65
2024/01/12 05:06:49;;;;;;;11.68;4.68;;;1.80;99.90;;;;;;5089850;28;20612;-64
2024/01/12 05:09:15;;;;;;;10.52;4.38;;;2.00;99.90;;;;;;5084684;28;20069;-64
2024/01/12 05:11:41;;;;;;;11.20;4.30;;;1.90;99.90;;;;;;5085744;28;20047;-64
2024/01/12 05:14:07;;;;;;;12.82;4.88;;;1.80;99.90;;;;;;5084083;28;20044;-64
2024/01/12 05:16:32;;;;;;;17.45;5.97;;;1.80;99.90;;;;;;5085683;28;20052;-64
2024/01/12 05:18:58;;;;;;;14.05;4.72;;;1.90;99.90;;;;;;5091181;28;20043;-64
2024/01/12 05:21:24;;;;;;;10.88;3.88;;;1.80;99.90;;;;;;5087638;28;20047;-64
2024/01/12 05:23:49;;;;;;;10.50;4.05;;;1.80;99.90;;;;;;5088957;28;20047;-64
2024/01/12 05:26:15;;;;;;;13.10;4.63;;;1.90;99.90;;;;;;5086348;28;20051;-64
2024/01/12 05:28:41;;;;;;;13.68;4.85;;;1.80;99.90;;;;;;5120956;27;20060;-64
2024/01/12 05:31:08;;;;;;;10.15;4.10;;;1.80;99.90;;;;;;5110539;27;20043;-64
2024/01/12 05:33:34;;;;;;;14.15;4.47;;;1.80;99.90;;;;;;5081829;28;20071;-64
2024/01/12 05:36:00;;;;;;;18.08;5.25;;;1.80;99.90;;;;;;5079704;28;20040;-64
2024/01/12 05:38:26;;;;;;;17.08;4.40;;;1.80;99.90;;;;;;5076686;28;20055;-64
2024/01/12 05:40:51;;;;;;;22.33;5.57;;;1.80;99.90;;;;;;5076560;28;20082;-64
2024/01/12 05:43:18;;;;;;;10.07;4.20;;;1.80;99.90;;;;;;5079357;28;20093;-64
2024/01/12 05:45:44;;;;;;;16.10;4.28;;;1.80;99.90;;;;;;5079458;28;20041;-64
2024/01/12 05:48:10;;;;;;;21.58;4.93;;;1.80;99.90;;;;;;5078350;28;20053;-64
2024/01/12 05:50:36;;;;;;;16.13;4.05;;;1.80;99.90;;;;;;5112067;27;20510;-64
2024/01/12 05:53:01;;;;;;;15.07;4.57;;;1.80;99.90;;;;;;5066718;28;20039;-64
2024/01/12 05:55:27;;;;;;;12.07;4.97;;;1.70;99.90;;;;;;5082350;28;20040;-64
2024/01/12 05:57:52;;;;;;;13.65;4.47;;;1.70;99.90;;;;;;5082690;28;20063;-64
2024/01/12 06:00:18;;;;;;;25.85;5.60;;;1.70;99.90;;;;;;5085971;28;20024;-64
2024/01/12 06:02:44;;;;;;;14.80;4.63;;;1.80;99.90;;;;;;5082096;28;20056;-64
2024/01/12 06:05:09;;;;;;;17.42;4.90;;;1.80;99.90;;;;;;5081239;28;20040;-64
2024/01/12 06:07:35;;;;;;;16.70;4.57;;;1.70;99.90;;;;;;5080399;28;20100;-64
2024/01/12 06:10:01;;;;;;;10.55;4.45;;;1.70;99.90;;;;;;5085209;28;20024;-64
2024/01/12 06:12:26;;;;;;;18.23;4.68;;;1.70;99.90;;;;;;5082028;28;20190;-64
2024/01/12 06:14:53;;;;;;;15.73;5.45;;;1.70;99.90;;;;;;5083965;28;20043;-64
2024/01/12 06:17:19;;;;;;;14.52;5.47;;;1.70;99.90;;;;;;5083612;28;20044;-64
2024/01/12 06:19:44;;;;;;;12.13;4.07;;;1.60;99.90;;;;;;5086392;28;20043;-64
2024/01/12 06:22:10;;;;;;;19.60;5.60;;;1.60;99.90;;;;;;5085880;28;20051;-64
2024/01/12 06:24:36;;;;;;;13.20;4.38;;;1.70;99.90;;;;;;5101681;27;20040;-64
2024/01/12 06:27:02;;;;;;;15.70;4.60;;;1.70;99.90;;;;;;5068473;28;20044;-64
2024/01/12 06:29:28;;;;;;;10.52;4.78;;;1.60;99.90;;;;;;5082904;28;20028;-64
2024/01/12 06:31:53;;;;;;;12.43;4.03;;;1.70;99.90;;;;;;5085119;28;20494;-64
2024/01/12 06:34:19;;;;;;;15.65;4.88;;;1.80;99.90;;;;;;5085032;28;20043;-64
2024/01/12 06:36:45;;;;;;;17.15;4.75;;;1.70;99.90;;;;;;5084715;28;20044;-64
2024/01/12 06:39:11;;;;;;;14.55;4.75;;;1.70;99.90;;;;;;5084440;28;20414;-64
2024/01/12 06:41:43;;;;;;;11.43;4.60;;;1.80;99.90;;;;;;5084604;28;20028;-64
2024/01/12 06:44:09;;;;;;;19.25;4.80;;;1.80;99.90;;;;;;5114757;27;20528;-64
2024/01/12 06:46:35;;;;;;;10.02;4.25;;;1.70;99.90;;;;;;5117177;27;20596;-64
2024/01/12 06:49:01;;;;;;;12.90;4.30;;;1.70;99.90;;;;;;5086118;28;20044;-64
2024/01/12 06:51:26;;;;;;;13.80;4.63;;;1.70;99.90;;;;;;5085128;28;20040;-64
2024/01/12 06:53:52;;;;;;;16.98;5.35;;;1.70;99.90;;;;;;5082644;28;20110;-64
2024/01/12 06:56:21;;;;;;;13.40;3.78;;;1.70;99.90;;;;;;5084168;28;20036;-64
2024/01/12 06:58:47;;;;;;;13.25;5.15;;;1.70;99.90;;;;;;5082490;28;20043;-64
2024/01/12 07:01:16;;;;;;;20.90;4.57;;;1.70;99.90;;;;;;5104869;27;20044;-64
2024/01/12 07:03:41;;;;;;;18.00;4.97;;;1.70;99.90;;;;;;5080451;28;20040;-64
2024/01/12 07:06:07;;;;;;;21.80;5.05;;;1.70;99.90;;;;;;5088099;28;20050;-64
2024/01/12 07:08:32;;;;;;;9.93;4.55;;;1.70;99.90;;;;;;5085433;28;20097;-64
2024/01/12 07:10:58;;;;;;;14.48;5.20;;;1.70;99.90;;;;;;5076850;28;20485;-64
2024/01/12 07:13:24;;;;;;;15.55;4.63;;;1.70;99.90;;;;;;5081760;28;20075;-64
2024/01/12 07:15:49;;;;;;;16.00;5.38;;;1.70;99.90;;;;;;5080998;28;20082;-64
2024/01/12 07:18:15;;;;;;;15.95;4.60;;;1.80;99.90;;;;;;5085655;28;20044;-65
2024/01/12 07:20:41;;;;;;;9.50;5.05;;;1.70;99.90;;;;;;5083325;28;20138;-64
2024/01/12 07:23:06;;;;;;;14.43;5.15;;;1.70;99.90;;;;;;5083285;28;20041;-64
2024/01/12 07:25:33;;;;;;;14.30;4.60;;;1.70;99.90;;;;;;5087321;28;20532;-64
2024/01/12 07:27:59;;;;;;;10.15;4.30;;;1.70;99.90;;;;;;5084315;28;20071;-64
2024/01/12 07:30:25;;;;;;;14.95;4.72;;;1.70;99.90;;;;;;5082665;28;20083;-64
2024/01/12 07:32:51;;;;;;;26.80;6.38;;;1.70;99.90;;;;;;5082688;28;20048;-64
2024/01/12 07:35:17;;;;;;;16.35;5.88;;;1.80;99.90;;;;;;5085098;28;20036;-64
2024/01/12 07:37:43;;;;;;;20.70;5.28;;;1.70;99.90;;;;;;5085498;28;20750;-64
2024/01/12 07:40:09;;;;;;;22.70;5.97;;;1.70;99.90;;;;;;5084226;28;20058;-64
2024/01/12 07:42:35;;;;;;;23.63;5.40;;;1.70;99.90;;;;;;5083639;28;20058;-64
2024/01/12 07:45:01;;;;;;;16.85;6.05;;;1.70;99.90;;;;;;5084536;28;20032;-64
2024/01/12 07:47:26;;;;;;;18.77;5.43;;;1.70;99.90;;;;;;5083623;28;20101;-64
2024/01/12 07:49:52;;;;;;;18.73;5.00;;;1.70;99.90;;;;;;5081490;28;20044;-64
2024/01/12 07:52:17;;;;;;;17.98;5.43;;;1.70;99.90;;;;;;5083558;28;20036;-64
2024/01/12 07:54:43;;;;;;;21.95;5.45;;;1.70;99.90;;;;;;5081666;28;20028;-64
2024/01/12 07:57:09;;;;;;;14.88;5.15;;;1.70;99.90;;;;;;5082717;28;20054;-64
2024/01/12 07:59:34;;;;;;;16.05;4.65;;;1.80;99.90;;;;;;5080664;28;20174;-64
2024/01/12 08:02:01;;;;;;;12.30;4.45;;;1.70;99.90;;;;;;5078027;28;20488;-64
2024/01/12 08:04:27;;;;;;;13.50;4.93;;;1.80;99.90;;;;;;5083185;28;20381;-64
2024/01/12 08:06:53;;;;;;;15.00;4.43;;;1.80;99.90;;;;;;5115081;27;20036;-64
2024/01/12 08:09:18;;;;;;;21.17;5.10;;;1.80;99.90;;;;;;5081430;28;20043;-64
2024/01/12 08:11:44;;;;;;;18.20;5.05;;;1.80;99.90;;;;;;5084341;28;20075;-64
2024/01/12 08:14:10;;;;;;;14.00;4.43;;;1.90;99.90;;;;;;5083526;28;20040;-64
2024/01/12 08:16:36;;;;;;;17.52;5.38;;;1.90;99.90;;;;;;5082878;28;20067;-64
2024/01/12 08:19:01;;;;;;;17.27;6.40;;;1.90;99.90;;;;;;5090219;28;20477;-64
2024/01/12 08:21:27;;;;;;;17.38;5.38;;;1.90;99.90;;;;;;5117558;27;20105;-64
2024/01/12 08:23:53;;;;;;;17.98;5.93;;;1.90;99.90;;;;;;5087441;28;20075;-63
2024/01/12 08:26:19;;;;;;;15.75;4.40;;;1.90;99.90;;;;;;5088884;28;20074;-63
2024/01/12 08:28:45;;;;;;;16.25;5.00;;;2.00;99.90;;;;;;5087885;28;21446;-63
2024/01/12 08:31:11;;;;;;;19.65;4.10;;;2.00;99.90;;;;;;5083101;28;20047;-63
2024/01/12 08:33:37;;;;;;;16.73;4.82;;;2.00;99.90;;;;;;5086002;28;20146;-63
2024/01/12 08:36:04;;;;;;;12.82;4.30;;;2.00;99.90;;;;;;5090592;28;20040;-63
2024/01/12 08:38:30;;;;;;;17.17;5.63;;;2.10;99.90;;;;;;5088815;28;20044;-63
2024/01/12 08:40:56;;;;;;;15.80;4.82;;;2.10;99.90;;;;;;5080786;28;20032;-63
2024/01/12 08:43:21;;;;;;;15.68;4.88;;;2.10;99.90;;;;;;5071035;28;20036;-64
2024/01/12 08:45:47;;;;;;;12.52;4.85;;;2.10;99.90;;;;;;5056067;28;20040;-63
2024/01/12 08:48:13;;;;;;;14.85;4.68;;;2.20;99.90;;;;;;5055738;28;20549;-63
2024/01/12 08:50:38;;;;;;;17.52;4.78;;;2.10;99.90;;;;;;5071590;28;20445;-63
2024/01/12 08:53:04;;;;;;;17.35;4.07;;;2.20;99.90;;;;;;5067420;28;20463;-63
2024/01/12 08:55:29;;;;;;;16.83;3.95;;;2.20;99.90;;;;;;5069308;28;20044;-63
2024/01/12 08:57:55;;;;;;;21.48;5.32;;;2.30;99.90;;;;;;5070886;28;20139;-63
2024/01/12 09:00:21;;;;;;;21.20;4.13;;;2.30;99.90;;;;;;5066646;28;20040;-63
2024/01/12 09:02:46;;;;;;;14.48;4.03;;;2.40;99.90;;;;;;5068555;28;20041;-63
2024/01/12 09:05:12;;;;;;;16.95;5.55;;;2.30;99.90;;;;;;5075379;28;20425;-63
2024/01/12 09:07:38;;;;;;;14.32;3.72;;;2.40;99.90;;;;;;5083838;28;20057;-63
2024/01/12 09:10:04;;;;;;;15.75;4.35;;;2.40;99.90;;;;;;5084274;28;20129;-63
2024/01/12 09:12:29;;;;;;;21.40;3.92;;;2.50;99.90;;;;;;5075830;28;20473;-63
2024/01/12 09:14:55;;;;;;;19.17;5.40;;;2.50;99.90;;;;;;5068305;28;20052;-63
2024/01/12 09:17:21;;;;;;;18.77;4.20;;;2.50;99.90;;;;;;5066981;28;20132;-63
2024/01/12 09:19:47;;;;;;;17.10;4.20;;;2.50;99.90;;;;;;5067599;28;20040;-63
2024/01/12 09:22:12;;;;;;;16.10;3.58;;;2.50;99.90;;;;;;5069240;28;20047;-63
2024/01/12 09:24:38;;;;;;;16.10;3.90;;;2.60;99.90;;;;;;5094705;27;20184;-63
2024/01/12 09:27:03;;;;;;;15.57;4.15;;;2.60;99.90;;;;;;5069785;28;20052;-63
2024/01/12 09:29:29;;;;;;;12.70;3.45;;;2.70;99.90;;;;;;5069214;28;20375;-63
2024/01/12 09:31:55;;;;;;;20.88;3.88;;;2.70;99.90;;;;;;5066831;28;20485;-63
2024/01/12 09:34:20;;;;;;;15.82;3.65;;;2.70;99.90;;;;;;5069843;28;20045;-63
2024/01/12 09:36:46;;;;;;;12.43;3.72;;;2.70;99.90;;;;;;5069266;28;20390;-63
2024/01/12 09:39:14;;;;;;;13.43;3.05;;;2.80;99.90;;;;;;5068316;28;20044;-63
2024/01/12 09:41:49;;;;;;;13.48;4.68;;;2.70;99.90;;;;;;5064657;28;20051;-63
2024/01/12 09:44:22;;;;;;;17.75;3.90;;;2.80;99.90;;;;;;5071585;28;20043;-63
2024/01/12 09:46:56;;;;;;;21.42;4.32;;;2.90;99.90;;;;;;5067990;28;20059;-64
2024/01/12 09:49:23;;;;;;;13.45;3.05;;;2.90;99.90;;;;;;5068015;28;20036;-63
2024/01/12 09:51:49;;;;;;;16.80;3.55;;;2.90;99.90;;;;;;5094417;27;20449;-63
2024/01/12 09:54:16;;;;;;;13.35;3.08;;;2.90;99.90;;;;;;5070959;28;20184;-63
2024/01/12 09:56:43;;;;;;;16.00;3.28;;;3.00;99.90;;;;;;5064660;28;20055;-63
2024/01/12 09:59:09;;;;;;;7.60;2.67;;;3.00;99.90;;;;;;5071565;28;20044;-63
2024/01/12 10:01:35;;;;;;;19.42;3.33;;;3.10;99.90;;;;;;5068313;28;20097;-63
2024/01/12 10:04:00;;;;;;;13.70;3.33;;;3.10;99.90;;;;;;5069051;28;20542;-63
2024/01/12 10:06:26;;;;;;;14.73;2.92;;;3.10;99.90;;;;;;5073680;28;20488;-63
2024/01/12 10:08:52;;;;;;;20.10;2.70;;;3.20;99.90;;;;;;5066010;28;20667;-63
2024/01/12 10:11:17;;;;;;;19.98;3.25;;;3.20;99.90;;;;;;5066351;28;20518;-63
2024/01/12 10:13:43;;;;;;;19.23;2.72;;;3.30;99.90;;;;;;5068350;28;20202;-63
2024/01/12 10:16:09;;;;;;;12.70;2.45;;;3.50;99.90;;;;;;5067058;28;20370;-63
2024/01/12 10:18:34;;;;;;;18.83;2.30;;;3.40;99.90;;;;;;5067504;28;20050;-63
2024/01/12 10:21:00;;;;;;;16.33;2.80;;;3.60;99.90;;;;;;5065931;28;20048;-63
2024/01/12 10:23:26;;;;;;;16.33;2.42;;;3.60;99.90;;;;;;5066456;28;20116;-63
2024/01/12 10:25:59;;;;;;;15.35;3.30;;;3.60;99.90;;;;;;5078290;27;20095;-63
2024/01/12 10:28:32;;;;;;;16.05;2.85;;;3.60;99.90;;;;;;5067976;28;20048;-63
2024/01/12 10:30:57;;;;;;;12.68;2.30;;;3.90;99.90;;;;;;5066038;28;20446;-63
2024/01/12 10:33:23;;;;;;;18.73;3.20;;;3.70;99.90;;;;;;5065856;28;20104;-63
2024/01/12 10:36:02;;;;;;;23.30;3.25;;;3.80;99.90;;;;;;5066631;28;20048;-63
2024/01/12 10:38:30;;;;;;;16.83;3.38;;;3.80;99.90;;;;;;5067335;28;20035;-63
2024/01/12 10:40:59;;;;;;;15.02;2.67;;;3.80;99.90;;;;;;5069663;28;20028;-63
2024/01/12 10:43:28;;;;;;;16.80;2.97;;;3.80;99.90;;;;;;5067217;28;20050;-63
2024/01/12 10:45:58;;;;;;;17.98;3.45;;;3.90;99.90;;;;;;5065163;28;21465;-63
2024/01/12 10:48:28;;;;;;;20.25;2.10;;;3.90;99.90;;;;;;5068033;28;20581;-63
2024/01/12 10:50:59;;;;;;;17.15;3.58;;;4.00;99.90;;;;;;5061876;28;20047;-63
2024/01/12 10:53:36;;;;;;;15.35;3.15;;;4.00;99.90;;;;;;5064484;28;20171;-63
2024/01/12 10:56:03;;;;;;;16.30;2.53;;;4.00;99.90;;;;;;5065784;28;20451;-63
2024/01/12 10:58:29;;;;;;;16.95;2.85;;;4.00;99.90;;;;;;5066579;28;21264;-63
2024/01/12 11:00:55;;;;;;;14.73;2.45;;;4.00;99.90;;;;;;5063205;28;20051;-63
2024/01/12 11:03:22;;;;;;;13.18;2.80;;;4.00;99.90;;;;;;5064753;28;20185;-63
2024/01/12 11:05:49;;;;;;;16.95;2.83;;;4.10;99.90;;;;;;5065083;28;20039;-63
2024/01/12 11:08:15;;;;;;;15.43;2.00;;;4.10;99.90;;;;;;5064618;28;20048;-63
2024/01/12 11:11:02;;;;;;;22.77;2.33;;;4.10;99.90;;;;;;5066335;28;20714;-63
2024/01/12 11:13:28;;;;;;;17.02;2.17;;;4.20;99.90;;;;;;5064401;28;20052;-63
2024/01/12 11:15:54;;;;;;;13.60;2.33;;;4.10;99.90;;;;;;5066688;28;20522;-63
2024/01/12 11:18:20;;;;;;;15.52;2.45;;;4.20;99.90;;;;;;5064630;28;20040;-63
2024/01/12 11:20:45;;;;;;;15.70;2.53;;;4.20;99.90;;;;;;5065967;28;20047;-63
2024/01/12 11:23:11;;;;;;;15.85;2.45;;;4.20;99.90;;;;;;5094029;27;20040;-63
2024/01/12 11:25:37;;;;;;;15.02;2.13;;;4.20;99.90;;;;;;5055358;28;20050;-63
2024/01/12 11:28:03;;;;;;;14.75;2.15;;;4.20;99.90;;;;;;5068341;28;20121;-63
2024/01/12 11:30:29;;;;;;;16.67;2.75;;;4.30;99.90;;;;;;5070509;28;20174;-63
2024/01/12 11:33:03;;;;;;;12.85;2.83;;;4.30;99.90;;;;;;5069861;28;20502;-63
2024/01/12 11:35:30;;;;;;;14.98;2.28;;;4.30;99.90;;;;;;5088785;27;20646;-63
2024/01/12 11:38:01;;;;;;;17.33;2.60;;;4.30;99.90;;;;;;5057589;28;20744;-63
2024/01/12 11:40:28;;;;;;;26.45;3.08;;;4.40;99.90;;;;;;5069791;28;20036;-63
2024/01/12 11:42:54;;;;;;;17.10;2.55;;;4.60;99.90;;;;;;5059688;28;20044;-63
2024/01/12 11:45:20;;;;;;;16.70;1.98;;;4.40;99.90;;;;;;5045138;28;20666;-63
2024/01/12 11:47:46;;;;;;;19.17;3.33;;;4.40;99.90;;;;;;5063830;28;20047;-63
2024/01/12 11:50:14;;;;;;;17.75;2.40;;;4.40;99.90;;;;;;5064002;28;20056;-63
2024/01/12 11:52:40;;;;;;;16.85;2.38;;;4.40;99.90;;;;;;5062673;28;20052;-63
2024/01/12 11:55:07;;;;;;;14.40;2.65;;;4.20;99.90;;;;;;5070666;28;20059;-63
2024/01/12 11:57:34;;;;;;;17.13;1.98;;;4.40;99.90;;;;;;5069307;28;20159;-63
2024/01/12 12:00:01;;;;;;;13.02;2.58;;;4.60;99.90;;;;;;5069970;28;20094;-63
2024/01/12 12:02:27;;;;;;;24.80;3.15;;;4.50;99.90;;;;;;5065115;28;20035;-63
2024/01/12 12:04:54;;;;;;;19.40;3.28;;;4.50;99.90;;;;;;5071809;28;20116;-63
2024/01/12 12:07:26;;;;;;;14.20;2.17;;;4.50;99.90;;;;;;5069181;28;20440;-63
2024/01/12 12:09:53;;;;;;;16.35;2.65;;;4.50;99.90;;;;;;5073116;28;20053;-63
2024/01/12 12:12:22;;;;;;;14.65;3.00;;;4.50;99.90;;;;;;5095781;27;20046;-63
2024/01/12 12:15:05;;;;;;;15.52;2.70;;;4.50;99.90;;;;;;5067295;28;20052;-63
2024/01/12 12:17:33;;;;;;;14.73;2.10;;;4.60;99.90;;;;;;5065548;28;20235;-63
2024/01/12 12:19:59;;;;;;;22.80;3.25;;;4.60;99.90;;;;;;5095265;27;20096;-63
2024/01/12 12:22:25;;;;;;;16.30;2.35;;;4.70;99.90;;;;;;5083561;27;20126;-63
2024/01/12 12:24:52;;;;;;;23.55;3.58;;;4.60;99.90;;;;;;5096179;27;20053;-63
2024/01/12 12:27:19;;;;;;;13.57;2.38;;;4.70;99.90;;;;;;5066954;28;20048;-63
2024/01/12 12:29:45;;;;;;;15.23;3.85;;;4.70;99.90;;;;;;5065584;28;20063;-63
2024/01/12 12:32:12;;;;;;;15.88;2.45;;;4.70;99.90;;;;;;5067308;28;20120;-63
2024/01/12 12:34:44;;;;;;;22.38;2.88;;;4.70;99.90;;;;;;5072183;28;20123;-63
2024/01/12 12:37:13;;;;;;;17.50;2.58;;;4.70;99.90;;;;;;5068819;28;20477;-63
2024/01/12 12:39:39;;;;;;;15.45;2.80;;;4.70;99.90;;;;;;5066095;28;20479;-63